sensor_id;sensor_type;location;lat;lon;timestamp;P1;durP1;ratioP1;P2;durP2;ratioP2
4422;SDS011;2224;49.814;8.650;2023-05-07T00:01:25;3.70;;;2.67;;
4422;SDS011;2224;49.814;8.650;2023-05-07T00:03:50;3.10;;;2.90;;
4422;SDS011;2224;49.814;8.650;2023-05-07T00:06:16;3.27;;;3.03;;
4422;SDS011;2224;49.814;8.650;2023-05-07T00:08:42;3.13;;;2.77;;
4422;SDS011;2224;49.814;8.650;2023-05-07T00:11:07;3.30;;;3.00;;
4422;SDS011;2224;49.814;8.650;2023-05-07T00:13:33;2.70;;;2.50;;
4422;SDS011;2224;49.814;8.650;2023-05-07T00:16:00;3.40;;;3.10;;
4422;SDS011;2224;49.814;8.650;2023-05-07T00:18:27;3.30;;;3.00;;
4422;SDS011;2224;49.814;8.650;2023-05-07T00:20:52;3.10;;;2.90;;
4422;SDS011;2224;49.814;8.650;2023-05-07T00:23:18;4.07;;;3.43;;
4422;SDS011;2224;49.814;8.650;2023-05-07T00:25:43;2.83;;;2.60;;
4422;SDS011;2224;49.814;8.650;2023-05-07T00:28:08;3.40;;;2.90;;
4422;SDS011;2224;49.814;8.650;2023-05-07T00:30:34;4.73;;;3.20;;
4422;SDS011;2224;49.814;8.650;2023-05-07T00:32:59;4.60;;;3.63;;
4422;SDS011;2224;49.814;8.650;2023-05-07T00:35:24;3.20;;;2.83;;
4422;SDS011;2224;49.814;8.650;2023-05-07T00:37:50;3.37;;;3.07;;
4422;SDS011;2224;49.814;8.650;2023-05-07T00:40:15;4.07;;;3.67;;
4422;SDS011;2224;49.814;8.650;2023-05-07T00:42:40;4.47;;;3.23;;
4422;SDS011;2224;49.814;8.650;2023-05-07T00:45:06;3.40;;;3.17;;
4422;SDS011;2224;49.814;8.650;2023-05-07T00:47:34;3.40;;;3.07;;
4422;SDS011;2224;49.814;8.650;2023-05-07T00:49:59;3.60;;;3.30;;
4422;SDS011;2224;49.814;8.650;2023-05-07T00:52:25;4.40;;;3.37;;
4422;SDS011;2224;49.814;8.650;2023-05-07T00:54:51;3.63;;;3.33;;
4422;SDS011;2224;49.814;8.650;2023-05-07T00:57:16;4.60;;;3.37;;
4422;SDS011;2224;49.814;8.650;2023-05-07T00:59:42;5.00;;;4.50;;
4422;SDS011;2224;49.814;8.650;2023-05-07T01:02:07;4.30;;;3.63;;
4422;SDS011;2224;49.814;8.650;2023-05-07T01:04:33;4.13;;;3.73;;
4422;SDS011;2224;49.814;8.650;2023-05-07T01:06:58;5.57;;;3.40;;
4422;SDS011;2224;49.814;8.650;2023-05-07T01:09:24;3.57;;;3.27;;
4422;SDS011;2224;49.814;8.650;2023-05-07T01:11:50;3.90;;;3.60;;
4422;SDS011;2224;49.814;8.650;2023-05-07T01:14:16;3.13;;;2.93;;
4422;SDS011;2224;49.814;8.650;2023-05-07T01:16:42;4.60;;;3.40;;
4422;SDS011;2224;49.814;8.650;2023-05-07T01:19:10;3.33;;;3.10;;
4422;SDS011;2224;49.814;8.650;2023-05-07T01:21:38;3.80;;;3.50;;
4422;SDS011;2224;49.814;8.650;2023-05-07T01:24:08;3.30;;;3.00;;
4422;SDS011;2224;49.814;8.650;2023-05-07T01:26:34;6.33;;;3.87;;
4422;SDS011;2224;49.814;8.650;2023-05-07T01:28:59;4.93;;;3.60;;
4422;SDS011;2224;49.814;8.650;2023-05-07T01:31:25;3.57;;;3.27;;
4422;SDS011;2224;49.814;8.650;2023-05-07T01:33:50;3.63;;;3.33;;
4422;SDS011;2224;49.814;8.650;2023-05-07T01:36:17;4.90;;;4.00;;
4422;SDS011;2224;49.814;8.650;2023-05-07T01:38:42;4.50;;;4.10;;
4422;SDS011;2224;49.814;8.650;2023-05-07T01:41:08;3.53;;;3.23;;
4422;SDS011;2224;49.814;8.650;2023-05-07T01:43:33;4.77;;;4.07;;
4422;SDS011;2224;49.814;8.650;2023-05-07T01:45:59;4.77;;;4.00;;
4422;SDS011;2224;49.814;8.650;2023-05-07T01:48:25;4.77;;;4.10;;
4422;SDS011;2224;49.814;8.650;2023-05-07T01:50:50;4.50;;;3.90;;
4422;SDS011;2224;49.814;8.650;2023-05-07T01:53:16;4.23;;;3.80;;
4422;SDS011;2224;49.814;8.650;2023-05-07T01:55:42;4.73;;;4.33;;
4422;SDS011;2224;49.814;8.650;2023-05-07T01:58:07;4.33;;;3.93;;
4422;SDS011;2224;49.814;8.650;2023-05-07T02:00:32;4.67;;;4.10;;
4422;SDS011;2224;49.814;8.650;2023-05-07T02:02:58;4.17;;;3.70;;
4422;SDS011;2224;49.814;8.650;2023-05-07T02:05:23;4.30;;;3.90;;
4422;SDS011;2224;49.814;8.650;2023-05-07T02:07:49;4.43;;;4.03;;
4422;SDS011;2224;49.814;8.650;2023-05-07T02:10:14;5.10;;;4.60;;
4422;SDS011;2224;49.814;8.650;2023-05-07T02:12:39;5.33;;;4.50;;
4422;SDS011;2224;49.814;8.650;2023-05-07T02:15:05;3.77;;;3.47;;
4422;SDS011;2224;49.814;8.650;2023-05-07T02:17:30;4.63;;;4.20;;
4422;SDS011;2224;49.814;8.650;2023-05-07T02:19:57;4.30;;;3.90;;
4422;SDS011;2224;49.814;8.650;2023-05-07T02:22:23;4.17;;;3.87;;
4422;SDS011;2224;49.814;8.650;2023-05-07T02:24:48;6.37;;;4.93;;
4422;SDS011;2224;49.814;8.650;2023-05-07T02:27:14;5.37;;;4.33;;
4422;SDS011;2224;49.814;8.650;2023-05-07T02:29:39;6.13;;;4.93;;
4422;SDS011;2224;49.814;8.650;2023-05-07T02:32:04;4.30;;;3.90;;
4422;SDS011;2224;49.814;8.650;2023-05-07T02:34:31;5.30;;;4.17;;
4422;SDS011;2224;49.814;8.650;2023-05-07T02:36:56;4.37;;;3.97;;
4422;SDS011;2224;49.814;8.650;2023-05-07T02:39:21;4.60;;;4.20;;
4422;SDS011;2224;49.814;8.650;2023-05-07T02:41:48;4.03;;;3.73;;
4422;SDS011;2224;49.814;8.650;2023-05-07T02:44:13;4.77;;;4.17;;
4422;SDS011;2224;49.814;8.650;2023-05-07T02:46:39;4.53;;;4.13;;
4422;SDS011;2224;49.814;8.650;2023-05-07T02:49:04;4.70;;;4.30;;
4422;SDS011;2224;49.814;8.650;2023-05-07T02:51:30;4.67;;;4.37;;
4422;SDS011;2224;49.814;8.650;2023-05-07T02:53:55;3.90;;;3.60;;
4422;SDS011;2224;49.814;8.650;2023-05-07T02:56:21;3.77;;;3.47;;
4422;SDS011;2224;49.814;8.650;2023-05-07T02:58:46;3.90;;;3.60;;
4422;SDS011;2224;49.814;8.650;2023-05-07T03:01:12;4.47;;;3.77;;
4422;SDS011;2224;49.814;8.650;2023-05-07T03:03:38;4.00;;;3.60;;
4422;SDS011;2224;49.814;8.650;2023-05-07T03:06:04;3.13;;;2.93;;
4422;SDS011;2224;49.814;8.650;2023-05-07T03:08:29;3.70;;;3.40;;
4422;SDS011;2224;49.814;8.650;2023-05-07T03:10:55;3.23;;;3.03;;
4422;SDS011;2224;49.814;8.650;2023-05-07T03:13:20;4.37;;;3.53;;
4422;SDS011;2224;49.814;8.650;2023-05-07T03:15:46;4.10;;;3.70;;
4422;SDS011;2224;49.814;8.650;2023-05-07T03:18:11;3.60;;;3.30;;
4422;SDS011;2224;49.814;8.650;2023-05-07T03:20:36;3.40;;;3.10;;
4422;SDS011;2224;49.814;8.650;2023-05-07T03:23:02;3.07;;;2.87;;
4422;SDS011;2224;49.814;8.650;2023-05-07T03:25:27;3.70;;;2.73;;
4422;SDS011;2224;49.814;8.650;2023-05-07T03:27:54;3.50;;;3.20;;
4422;SDS011;2224;49.814;8.650;2023-05-07T03:30:20;3.13;;;2.83;;
4422;SDS011;2224;49.814;8.650;2023-05-07T03:32:45;3.60;;;3.30;;
4422;SDS011;2224;49.814;8.650;2023-05-07T03:35:11;4.00;;;3.10;;
4422;SDS011;2224;49.814;8.650;2023-05-07T03:37:37;3.10;;;2.80;;
4422;SDS011;2224;49.814;8.650;2023-05-07T03:40:03;3.23;;;2.93;;
4422;SDS011;2224;49.814;8.650;2023-05-07T03:42:31;3.43;;;3.17;;
4422;SDS011;2224;49.814;8.650;2023-05-07T03:44:57;4.70;;;3.70;;
4422;SDS011;2224;49.814;8.650;2023-05-07T03:47:22;4.00;;;3.00;;
4422;SDS011;2224;49.814;8.650;2023-05-07T03:49:47;3.93;;;3.43;;
4422;SDS011;2224;49.814;8.650;2023-05-07T03:52:14;4.70;;;3.03;;
4422;SDS011;2224;49.814;8.650;2023-05-07T03:54:39;3.57;;;3.27;;
4422;SDS011;2224;49.814;8.650;2023-05-07T03:57:05;4.83;;;3.40;;
4422;SDS011;2224;49.814;8.650;2023-05-07T03:59:30;3.30;;;3.00;;
4422;SDS011;2224;49.814;8.650;2023-05-07T04:01:55;3.47;;;3.17;;
4422;SDS011;2224;49.814;8.650;2023-05-07T04:04:21;3.30;;;3.00;;
4422;SDS011;2224;49.814;8.650;2023-05-07T04:06:46;3.03;;;2.83;;
4422;SDS011;2224;49.814;8.650;2023-05-07T04:09:11;2.93;;;2.67;;
4422;SDS011;2224;49.814;8.650;2023-05-07T04:11:37;3.30;;;3.03;;
4422;SDS011;2224;49.814;8.650;2023-05-07T04:14:02;3.73;;;3.43;;
4422;SDS011;2224;49.814;8.650;2023-05-07T04:16:27;3.37;;;3.07;;
4422;SDS011;2224;49.814;8.650;2023-05-07T04:18:52;3.23;;;2.93;;
4422;SDS011;2224;49.814;8.650;2023-05-07T04:21:18;3.70;;;3.30;;
4422;SDS011;2224;49.814;8.650;2023-05-07T04:23:45;3.57;;;3.27;;
4422;SDS011;2224;49.814;8.650;2023-05-07T04:26:11;3.30;;;3.10;;
4422;SDS011;2224;49.814;8.650;2023-05-07T04:28:36;3.13;;;2.93;;
4422;SDS011;2224;49.814;8.650;2023-05-07T04:31:01;3.10;;;2.90;;
4422;SDS011;2224;49.814;8.650;2023-05-07T04:33:27;3.33;;;3.10;;
4422;SDS011;2224;49.814;8.650;2023-05-07T04:35:52;4.23;;;3.43;;
4422;SDS011;2224;49.814;8.650;2023-05-07T04:38:17;4.03;;;3.67;;
4422;SDS011;2224;49.814;8.650;2023-05-07T04:40:43;3.40;;;3.10;;
4422;SDS011;2224;49.814;8.650;2023-05-07T04:43:09;3.80;;;3.50;;
4422;SDS011;2224;49.814;8.650;2023-05-07T04:45:37;3.90;;;3.60;;
4422;SDS011;2224;49.814;8.650;2023-05-07T04:48:05;4.57;;;4.27;;
4422;SDS011;2224;49.814;8.650;2023-05-07T04:50:30;3.60;;;3.30;;
4422;SDS011;2224;49.814;8.650;2023-05-07T04:52:56;3.40;;;3.10;;
4422;SDS011;2224;49.814;8.650;2023-05-07T04:55:21;3.83;;;3.53;;
4422;SDS011;2224;49.814;8.650;2023-05-07T04:57:46;4.17;;;3.30;;
4422;SDS011;2224;49.814;8.650;2023-05-07T05:00:12;3.20;;;3.00;;
4422;SDS011;2224;49.814;8.650;2023-05-07T05:02:41;3.30;;;3.00;;
4422;SDS011;2224;49.814;8.650;2023-05-07T05:05:06;4.30;;;3.47;;
4422;SDS011;2224;49.814;8.650;2023-05-07T05:07:32;4.80;;;3.67;;
4422;SDS011;2224;49.814;8.650;2023-05-07T05:09:57;4.37;;;3.30;;
4422;SDS011;2224;49.814;8.650;2023-05-07T05:12:23;3.27;;;2.97;;
4422;SDS011;2224;49.814;8.650;2023-05-07T05:14:48;3.67;;;3.37;;
4422;SDS011;2224;49.814;8.650;2023-05-07T05:17:13;4.03;;;3.03;;
4422;SDS011;2224;49.814;8.650;2023-05-07T05:19:39;3.33;;;3.10;;
4422;SDS011;2224;49.814;8.650;2023-05-07T05:22:04;3.20;;;3.00;;
4422;SDS011;2224;49.814;8.650;2023-05-07T05:24:30;5.13;;;3.47;;
4422;SDS011;2224;49.814;8.650;2023-05-07T05:26:56;3.13;;;2.93;;
4422;SDS011;2224;49.814;8.650;2023-05-07T05:29:21;3.77;;;3.47;;
4422;SDS011;2224;49.814;8.650;2023-05-07T05:31:46;3.40;;;3.10;;
4422;SDS011;2224;49.814;8.650;2023-05-07T05:34:12;3.77;;;3.30;;
4422;SDS011;2224;49.814;8.650;2023-05-07T05:36:37;3.40;;;3.10;;
4422;SDS011;2224;49.814;8.650;2023-05-07T05:39:02;3.43;;;3.13;;
4422;SDS011;2224;49.814;8.650;2023-05-07T05:41:28;3.63;;;3.20;;
4422;SDS011;2224;49.814;8.650;2023-05-07T05:43:53;3.93;;;2.93;;
4422;SDS011;2224;49.814;8.650;2023-05-07T05:46:18;3.60;;;3.30;;
4422;SDS011;2224;49.814;8.650;2023-05-07T05:48:44;3.50;;;3.20;;
4422;SDS011;2224;49.814;8.650;2023-05-07T05:51:09;3.20;;;2.90;;
4422;SDS011;2224;49.814;8.650;2023-05-07T05:53:34;4.13;;;3.73;;
4422;SDS011;2224;49.814;8.650;2023-05-07T05:56:00;3.73;;;3.43;;
4422;SDS011;2224;49.814;8.650;2023-05-07T05:58:25;4.70;;;3.07;;
4422;SDS011;2224;49.814;8.650;2023-05-07T06:00:51;3.57;;;3.27;;
4422;SDS011;2224;49.814;8.650;2023-05-07T06:03:17;3.37;;;3.07;;
4422;SDS011;2224;49.814;8.650;2023-05-07T06:05:42;3.53;;;3.23;;
4422;SDS011;2224;49.814;8.650;2023-05-07T06:08:08;4.67;;;3.30;;
4422;SDS011;2224;49.814;8.650;2023-05-07T06:10:33;4.13;;;3.60;;
4422;SDS011;2224;49.814;8.650;2023-05-07T06:12:58;3.70;;;3.40;;
4422;SDS011;2224;49.814;8.650;2023-05-07T06:15:24;4.63;;;3.20;;
4422;SDS011;2224;49.814;8.650;2023-05-07T06:17:49;3.70;;;3.40;;
4422;SDS011;2224;49.814;8.650;2023-05-07T06:20:14;3.50;;;3.20;;
4422;SDS011;2224;49.814;8.650;2023-05-07T06:22:40;4.10;;;3.80;;
4422;SDS011;2224;49.814;8.650;2023-05-07T06:25:05;3.80;;;3.50;;
4422;SDS011;2224;49.814;8.650;2023-05-07T06:27:31;4.43;;;3.93;;
4422;SDS011;2224;49.814;8.650;2023-05-07T06:29:56;4.90;;;4.40;;
4422;SDS011;2224;49.814;8.650;2023-05-07T06:32:22;5.40;;;3.77;;
4422;SDS011;2224;49.814;8.650;2023-05-07T06:34:47;3.80;;;3.50;;
4422;SDS011;2224;49.814;8.650;2023-05-07T06:37:12;3.83;;;3.53;;
4422;SDS011;2224;49.814;8.650;2023-05-07T06:39:37;5.40;;;3.83;;
4422;SDS011;2224;49.814;8.650;2023-05-07T06:42:03;4.30;;;4.00;;
4422;SDS011;2224;49.814;8.650;2023-05-07T06:44:29;7.17;;;3.93;;
4422;SDS011;2224;49.814;8.650;2023-05-07T06:46:55;5.73;;;4.40;;
4422;SDS011;2224;49.814;8.650;2023-05-07T06:49:20;4.70;;;4.30;;
4422;SDS011;2224;49.814;8.650;2023-05-07T06:51:45;4.50;;;4.20;;
4422;SDS011;2224;49.814;8.650;2023-05-07T06:54:10;4.10;;;3.80;;
4422;SDS011;2224;49.814;8.650;2023-05-07T06:56:36;4.30;;;3.90;;
4422;SDS011;2224;49.814;8.650;2023-05-07T06:59:01;3.90;;;3.60;;
4422;SDS011;2224;49.814;8.650;2023-05-07T07:01:27;4.80;;;4.30;;
4422;SDS011;2224;49.814;8.650;2023-05-07T07:03:53;7.27;;;3.30;;
4422;SDS011;2224;49.814;8.650;2023-05-07T07:06:18;5.23;;;3.80;;
4422;SDS011;2224;49.814;8.650;2023-05-07T07:08:43;4.07;;;3.30;;
4422;SDS011;2224;49.814;8.650;2023-05-07T07:11:09;4.60;;;3.90;;
4422;SDS011;2224;49.814;8.650;2023-05-07T07:13:35;3.50;;;3.20;;
4422;SDS011;2224;49.814;8.650;2023-05-07T07:16:00;4.10;;;3.70;;
4422;SDS011;2224;49.814;8.650;2023-05-07T07:18:25;3.97;;;3.67;;
4422;SDS011;2224;49.814;8.650;2023-05-07T07:20:51;4.63;;;4.23;;
4422;SDS011;2224;49.814;8.650;2023-05-07T07:23:16;4.00;;;3.70;;
4422;SDS011;2224;49.814;8.650;2023-05-07T07:25:41;4.23;;;3.83;;
4422;SDS011;2224;49.814;8.650;2023-05-07T07:28:07;3.70;;;3.30;;
4422;SDS011;2224;49.814;8.650;2023-05-07T07:30:32;4.03;;;3.73;;
4422;SDS011;2224;49.814;8.650;2023-05-07T07:32:57;4.57;;;4.17;;
4422;SDS011;2224;49.814;8.650;2023-05-07T07:35:27;4.23;;;3.83;;
4422;SDS011;2224;49.814;8.650;2023-05-07T07:37:53;4.97;;;4.40;;
4422;SDS011;2224;49.814;8.650;2023-05-07T07:40:19;5.40;;;4.90;;
4422;SDS011;2224;49.814;8.650;2023-05-07T07:42:44;6.33;;;4.60;;
4422;SDS011;2224;49.814;8.650;2023-05-07T07:45:09;5.10;;;4.60;;
4422;SDS011;2224;49.814;8.650;2023-05-07T07:47:35;5.00;;;4.50;;
4422;SDS011;2224;49.814;8.650;2023-05-07T07:50:00;4.37;;;4.07;;
4422;SDS011;2224;49.814;8.650;2023-05-07T07:52:26;4.87;;;4.40;;
4422;SDS011;2224;49.814;8.650;2023-05-07T07:54:51;5.47;;;4.97;;
4422;SDS011;2224;49.814;8.650;2023-05-07T07:57:16;5.43;;;4.93;;
4422;SDS011;2224;49.814;8.650;2023-05-07T07:59:41;5.27;;;4.77;;
4422;SDS011;2224;49.814;8.650;2023-05-07T08:02:08;5.63;;;5.13;;
4422;SDS011;2224;49.814;8.650;2023-05-07T08:04:33;5.30;;;4.80;;
4422;SDS011;2224;49.814;8.650;2023-05-07T08:06:59;5.00;;;4.60;;
4422;SDS011;2224;49.814;8.650;2023-05-07T08:09:24;6.20;;;4.17;;
4422;SDS011;2224;49.814;8.650;2023-05-07T08:11:49;5.83;;;4.20;;
4422;SDS011;2224;49.814;8.650;2023-05-07T08:14:15;4.93;;;4.53;;
4422;SDS011;2224;49.814;8.650;2023-05-07T08:16:40;5.20;;;4.80;;
4422;SDS011;2224;49.814;8.650;2023-05-07T08:19:06;5.80;;;4.10;;
4422;SDS011;2224;49.814;8.650;2023-05-07T08:21:31;4.77;;;4.37;;
4422;SDS011;2224;49.814;8.650;2023-05-07T08:23:56;4.97;;;4.50;;
4422;SDS011;2224;49.814;8.650;2023-05-07T08:26:22;5.37;;;4.97;;
4422;SDS011;2224;49.814;8.650;2023-05-07T08:28:47;4.70;;;4.30;;
4422;SDS011;2224;49.814;8.650;2023-05-07T08:31:13;5.93;;;4.53;;
4422;SDS011;2224;49.814;8.650;2023-05-07T08:33:38;4.03;;;3.70;;
4422;SDS011;2224;49.814;8.650;2023-05-07T08:36:03;6.17;;;4.30;;
4422;SDS011;2224;49.814;8.650;2023-05-07T08:38:29;4.77;;;4.37;;
4422;SDS011;2224;49.814;8.650;2023-05-07T08:40:55;5.13;;;4.73;;
4422;SDS011;2224;49.814;8.650;2023-05-07T08:43:20;6.23;;;4.77;;
4422;SDS011;2224;49.814;8.650;2023-05-07T08:45:46;4.73;;;4.33;;
4422;SDS011;2224;49.814;8.650;2023-05-07T08:48:15;5.00;;;4.60;;
4422;SDS011;2224;49.814;8.650;2023-05-07T08:50:41;5.50;;;5.07;;
4422;SDS011;2224;49.814;8.650;2023-05-07T08:53:07;4.93;;;4.43;;
4422;SDS011;2224;49.814;8.650;2023-05-07T08:55:32;5.10;;;4.60;;
4422;SDS011;2224;49.814;8.650;2023-05-07T08:57:58;5.50;;;5.00;;
4422;SDS011;2224;49.814;8.650;2023-05-07T09:00:23;5.60;;;4.47;;
4422;SDS011;2224;49.814;8.650;2023-05-07T09:02:49;5.33;;;4.90;;
4422;SDS011;2224;49.814;8.650;2023-05-07T09:05:14;6.47;;;5.53;;
4422;SDS011;2224;49.814;8.650;2023-05-07T09:07:40;5.50;;;4.83;;
4422;SDS011;2224;49.814;8.650;2023-05-07T09:10:05;6.87;;;6.17;;
4422;SDS011;2224;49.814;8.650;2023-05-07T09:12:31;6.10;;;5.60;;
4422;SDS011;2224;49.814;8.650;2023-05-07T09:14:57;5.27;;;4.87;;
4422;SDS011;2224;49.814;8.650;2023-05-07T09:17:23;4.93;;;4.53;;
4422;SDS011;2224;49.814;8.650;2023-05-07T09:19:49;5.63;;;5.23;;
4422;SDS011;2224;49.814;8.650;2023-05-07T09:22:14;6.93;;;6.20;;
4422;SDS011;2224;49.814;8.650;2023-05-07T09:24:39;5.63;;;5.23;;
4422;SDS011;2224;49.814;8.650;2023-05-07T09:27:05;5.30;;;4.90;;
4422;SDS011;2224;49.814;8.650;2023-05-07T09:29:31;5.57;;;5.07;;
4422;SDS011;2224;49.814;8.650;2023-05-07T09:32:03;4.93;;;4.47;;
4422;SDS011;2224;49.814;8.650;2023-05-07T09:34:30;6.03;;;5.43;;
4422;SDS011;2224;49.814;8.650;2023-05-07T09:36:55;5.40;;;4.97;;
4422;SDS011;2224;49.814;8.650;2023-05-07T09:39:21;6.73;;;5.47;;
4422;SDS011;2224;49.814;8.650;2023-05-07T09:41:48;5.90;;;5.40;;
4422;SDS011;2224;49.814;8.650;2023-05-07T09:44:19;5.73;;;5.27;;
4422;SDS011;2224;49.814;8.650;2023-05-07T09:46:45;6.63;;;5.60;;
4422;SDS011;2224;49.814;8.650;2023-05-07T09:49:13;6.27;;;5.77;;
4422;SDS011;2224;49.814;8.650;2023-05-07T09:51:45;5.73;;;5.23;;
4422;SDS011;2224;49.814;8.650;2023-05-07T09:54:13;5.87;;;5.37;;
4422;SDS011;2224;49.814;8.650;2023-05-07T09:56:38;5.50;;;5.10;;
4422;SDS011;2224;49.814;8.650;2023-05-07T09:59:06;6.40;;;5.90;;
4422;SDS011;2224;49.814;8.650;2023-05-07T10:01:32;6.10;;;5.60;;
4422;SDS011;2224;49.814;8.650;2023-05-07T10:03:58;5.87;;;5.47;;
4422;SDS011;2224;49.814;8.650;2023-05-07T10:06:24;5.80;;;5.30;;
4422;SDS011;2224;49.814;8.650;2023-05-07T10:08:50;5.50;;;5.00;;
4422;SDS011;2224;49.814;8.650;2023-05-07T10:11:17;6.10;;;5.60;;
4422;SDS011;2224;49.814;8.650;2023-05-07T10:13:43;6.00;;;5.57;;
4422;SDS011;2224;49.814;8.650;2023-05-07T10:16:08;5.87;;;5.37;;
4422;SDS011;2224;49.814;8.650;2023-05-07T10:18:34;5.87;;;5.27;;
4422;SDS011;2224;49.814;8.650;2023-05-07T10:21:02;5.60;;;5.20;;
4422;SDS011;2224;49.814;8.650;2023-05-07T10:23:29;6.23;;;5.70;;
4422;SDS011;2224;49.814;8.650;2023-05-07T10:25:56;6.50;;;5.60;;
4422;SDS011;2224;49.814;8.650;2023-05-07T10:28:21;6.93;;;5.97;;
4422;SDS011;2224;49.814;8.650;2023-05-07T10:33:35;5.60;;;5.10;;
4422;SDS011;2224;49.814;8.650;2023-05-07T10:36:01;6.20;;;5.70;;
4422;SDS011;2224;49.814;8.650;2023-05-07T10:38:29;7.03;;;5.23;;
4422;SDS011;2224;49.814;8.650;2023-05-07T10:40:55;5.70;;;5.20;;
4422;SDS011;2224;49.814;8.650;2023-05-07T10:43:20;6.83;;;5.40;;
4422;SDS011;2224;49.814;8.650;2023-05-07T10:49:24;5.90;;;4.73;;
4422;SDS011;2224;49.814;8.650;2023-05-07T10:51:33;6.07;;;5.57;;
4422;SDS011;2224;49.814;8.650;2023-05-07T10:56:41;5.50;;;5.00;;
4422;SDS011;2224;49.814;8.650;2023-05-07T11:02:03;5.30;;;4.90;;
4422;SDS011;2224;49.814;8.650;2023-05-07T11:04:31;5.63;;;5.13;;
4422;SDS011;2224;49.814;8.650;2023-05-07T11:15:11;5.70;;;5.00;;
4422;SDS011;2224;49.814;8.650;2023-05-07T11:17:56;5.37;;;4.97;;
4422;SDS011;2224;49.814;8.650;2023-05-07T11:26:03;5.33;;;4.60;;
4422;SDS011;2224;49.814;8.650;2023-05-07T11:28:42;5.20;;;4.80;;
4422;SDS011;2224;49.814;8.650;2023-05-07T11:31:08;5.50;;;5.00;;
4422;SDS011;2224;49.814;8.650;2023-05-07T11:33:34;5.00;;;4.60;;
4422;SDS011;2224;49.814;8.650;2023-05-07T11:36:00;5.80;;;5.30;;
4422;SDS011;2224;49.814;8.650;2023-05-07T11:38:27;4.90;;;4.30;;
4422;SDS011;2224;49.814;8.650;2023-05-07T11:40:57;5.57;;;5.07;;
4422;SDS011;2224;49.814;8.650;2023-05-07T11:43:26;5.10;;;4.70;;
4422;SDS011;2224;49.814;8.650;2023-05-07T11:45:52;5.23;;;4.50;;
4422;SDS011;2224;49.814;8.650;2023-05-07T11:48:17;4.77;;;4.47;;
4422;SDS011;2224;49.814;8.650;2023-05-07T11:50:53;5.77;;;4.47;;
4422;SDS011;2224;49.814;8.650;2023-05-07T11:53:19;5.17;;;4.50;;
4422;SDS011;2224;49.814;8.650;2023-05-07T11:55:45;6.33;;;5.50;;
4422;SDS011;2224;49.814;8.650;2023-05-07T11:58:12;7.00;;;5.33;;
4422;SDS011;2224;49.814;8.650;2023-05-07T12:00:38;6.13;;;4.77;;
4422;SDS011;2224;49.814;8.650;2023-05-07T12:03:06;4.73;;;4.40;;
4422;SDS011;2224;49.814;8.650;2023-05-07T12:05:31;4.50;;;4.10;;
4422;SDS011;2224;49.814;8.650;2023-05-07T12:07:57;5.13;;;4.63;;
4422;SDS011;2224;49.814;8.650;2023-05-07T12:10:22;4.43;;;4.03;;
4422;SDS011;2224;49.814;8.650;2023-05-07T12:12:49;5.03;;;4.63;;
4422;SDS011;2224;49.814;8.650;2023-05-07T12:15:15;5.13;;;4.63;;
4422;SDS011;2224;49.814;8.650;2023-05-07T12:17:41;4.73;;;4.10;;
4422;SDS011;2224;49.814;8.650;2023-05-07T12:20:07;4.47;;;4.07;;
4422;SDS011;2224;49.814;8.650;2023-05-07T12:22:33;3.97;;;3.67;;
4422;SDS011;2224;49.814;8.650;2023-05-07T12:24:58;4.50;;;4.20;;
4422;SDS011;2224;49.814;8.650;2023-05-07T12:27:24;5.30;;;4.43;;
4422;SDS011;2224;49.814;8.650;2023-05-07T12:29:50;5.70;;;3.60;;
4422;SDS011;2224;49.814;8.650;2023-05-07T12:32:16;4.70;;;4.30;;
4422;SDS011;2224;49.814;8.650;2023-05-07T12:34:43;4.33;;;4.03;;
4422;SDS011;2224;49.814;8.650;2023-05-07T12:37:09;4.87;;;3.93;;
4422;SDS011;2224;49.814;8.650;2023-05-07T12:39:35;6.10;;;3.70;;
4422;SDS011;2224;49.814;8.650;2023-05-07T12:42:00;6.83;;;4.60;;
4422;SDS011;2224;49.814;8.650;2023-05-07T12:44:28;4.50;;;3.83;;
4422;SDS011;2224;49.814;8.650;2023-05-07T12:46:55;3.77;;;3.47;;
4422;SDS011;2224;49.814;8.650;2023-05-07T12:49:20;5.60;;;4.07;;
4422;SDS011;2224;49.814;8.650;2023-05-07T12:51:46;4.50;;;4.17;;
4422;SDS011;2224;49.814;8.650;2023-05-07T12:54:13;5.70;;;3.47;;
4422;SDS011;2224;49.814;8.650;2023-05-07T12:56:39;4.30;;;3.90;;
4422;SDS011;2224;49.814;8.650;2023-05-07T12:59:05;3.90;;;3.60;;
4422;SDS011;2224;49.814;8.650;2023-05-07T13:01:30;4.10;;;3.80;;
4422;SDS011;2224;49.814;8.650;2023-05-07T13:04:00;4.10;;;3.70;;
4422;SDS011;2224;49.814;8.650;2023-05-07T13:06:26;4.30;;;3.90;;
4422;SDS011;2224;49.814;8.650;2023-05-07T13:08:51;4.10;;;3.80;;
4422;SDS011;2224;49.814;8.650;2023-05-07T13:11:16;4.30;;;3.70;;
4422;SDS011;2224;49.814;8.650;2023-05-07T13:13:42;4.37;;;3.97;;
4422;SDS011;2224;49.814;8.650;2023-05-07T13:16:08;4.10;;;3.50;;
4422;SDS011;2224;49.814;8.650;2023-05-07T13:18:35;3.63;;;3.20;;
4422;SDS011;2224;49.814;8.650;2023-05-07T13:21:01;3.83;;;3.50;;
4422;SDS011;2224;49.814;8.650;2023-05-07T13:23:26;4.60;;;3.27;;
4422;SDS011;2224;49.814;8.650;2023-05-07T13:25:52;3.67;;;3.40;;
4422;SDS011;2224;49.814;8.650;2023-05-07T13:28:24;3.97;;;3.53;;
4422;SDS011;2224;49.814;8.650;2023-05-07T13:30:50;4.67;;;3.67;;
4422;SDS011;2224;49.814;8.650;2023-05-07T13:33:17;4.27;;;3.50;;
4422;SDS011;2224;49.814;8.650;2023-05-07T13:35:42;5.00;;;3.83;;
4422;SDS011;2224;49.814;8.650;2023-05-07T13:38:07;3.80;;;3.50;;
4422;SDS011;2224;49.814;8.650;2023-05-07T13:40:33;3.80;;;3.50;;
4422;SDS011;2224;49.814;8.650;2023-05-07T13:42:58;3.13;;;2.77;;
4422;SDS011;2224;49.814;8.650;2023-05-07T13:45:25;3.80;;;3.50;;
4422;SDS011;2224;49.814;8.650;2023-05-07T13:47:51;3.80;;;3.07;;
4422;SDS011;2224;49.814;8.650;2023-05-07T13:50:17;3.60;;;3.30;;
4422;SDS011;2224;49.814;8.650;2023-05-07T13:52:43;4.73;;;3.00;;
4422;SDS011;2224;49.814;8.650;2023-05-07T13:55:10;6.23;;;3.07;;
4422;SDS011;2224;49.814;8.650;2023-05-07T13:57:36;3.30;;;3.10;;
4422;SDS011;2224;49.814;8.650;2023-05-07T14:00:02;3.37;;;3.07;;
4422;SDS011;2224;49.814;8.650;2023-05-07T14:02:29;2.60;;;2.40;;
4422;SDS011;2224;49.814;8.650;2023-05-07T14:04:55;4.03;;;2.97;;
4422;SDS011;2224;49.814;8.650;2023-05-07T14:07:20;4.30;;;2.90;;
4422;SDS011;2224;49.814;8.650;2023-05-07T14:09:46;4.20;;;3.30;;
4422;SDS011;2224;49.814;8.650;2023-05-07T14:12:11;3.30;;;3.00;;
4422;SDS011;2224;49.814;8.650;2023-05-07T14:14:36;3.13;;;2.83;;
4422;SDS011;2224;49.814;8.650;2023-05-07T14:17:02;3.00;;;2.80;;
4422;SDS011;2224;49.814;8.650;2023-05-07T14:19:27;3.30;;;3.00;;
4422;SDS011;2224;49.814;8.650;2023-05-07T14:21:52;3.20;;;2.90;;
4422;SDS011;2224;49.814;8.650;2023-05-07T14:24:18;4.27;;;3.10;;
4422;SDS011;2224;49.814;8.650;2023-05-07T14:26:43;3.10;;;2.80;;
4422;SDS011;2224;49.814;8.650;2023-05-07T14:29:10;3.10;;;2.80;;
4422;SDS011;2224;49.814;8.650;2023-05-07T14:31:35;3.47;;;3.17;;
4422;SDS011;2224;49.814;8.650;2023-05-07T14:34:00;3.40;;;3.10;;
4422;SDS011;2224;49.814;8.650;2023-05-07T14:36:26;3.23;;;2.90;;
4422;SDS011;2224;49.814;8.650;2023-05-07T14:38:52;5.13;;;3.53;;
4422;SDS011;2224;49.814;8.650;2023-05-07T14:41:23;3.73;;;3.30;;
4422;SDS011;2224;49.814;8.650;2023-05-07T14:43:49;6.70;;;3.50;;
4422;SDS011;2224;49.814;8.650;2023-05-07T14:46:18;4.57;;;3.40;;
4422;SDS011;2224;49.814;8.650;2023-05-07T14:48:44;3.33;;;3.03;;
4422;SDS011;2224;49.814;8.650;2023-05-07T14:51:10;3.20;;;3.00;;
4422;SDS011;2224;49.814;8.650;2023-05-07T14:53:36;3.83;;;3.53;;
4422;SDS011;2224;49.814;8.650;2023-05-07T14:56:01;3.70;;;3.40;;
4422;SDS011;2224;49.814;8.650;2023-05-07T14:58:26;5.03;;;3.63;;
4422;SDS011;2224;49.814;8.650;2023-05-07T15:00:52;8.07;;;3.83;;
4422;SDS011;2224;49.814;8.650;2023-05-07T15:03:17;3.60;;;3.30;;
4422;SDS011;2224;49.814;8.650;2023-05-07T15:05:42;3.97;;;3.67;;
4422;SDS011;2224;49.814;8.650;2023-05-07T15:08:08;3.90;;;3.60;;
4422;SDS011;2224;49.814;8.650;2023-05-07T15:10:36;4.33;;;3.90;;
4422;SDS011;2224;49.814;8.650;2023-05-07T15:13:06;3.60;;;3.40;;
4422;SDS011;2224;49.814;8.650;2023-05-07T15:15:35;3.30;;;3.00;;
4422;SDS011;2224;49.814;8.650;2023-05-07T15:18:00;3.90;;;3.27;;
4422;SDS011;2224;49.814;8.650;2023-05-07T15:20:26;5.27;;;3.67;;
4422;SDS011;2224;49.814;8.650;2023-05-07T15:22:51;4.07;;;3.67;;
4422;SDS011;2224;49.814;8.650;2023-05-07T15:25:17;4.73;;;4.30;;
4422;SDS011;2224;49.814;8.650;2023-05-07T15:27:42;4.13;;;3.83;;
4422;SDS011;2224;49.814;8.650;2023-05-07T15:30:08;4.63;;;4.10;;
4422;SDS011;2224;49.814;8.650;2023-05-07T15:32:35;3.87;;;3.57;;